Montecarlo, Argentina
Current Conditions -  °F | °C
As of 12:00 PM on Sunday 21 Dec 2014 (Local Time) from SARI Reporting Station
Broken Clouds Broken Clouds  
Wind Chill: 28°   Ceiling: 3000
Heat Index: 32°   Visibility: 6mi
Dew Point: 24°   Wind: 12mph
Humidity: 79%   Direction: 360°N
Pressure: 29.68"   Gusts: NA
Location:  26.62°S, 54.75°W
Report Text: SARI 211500Z 36010KT 9999 BKN030 BKN10028/24 Q1005
Loading
Personal Weather Stations






























Interactive Weather Map New forecast layout! Learn more

10-Day Weather Forecast

Advertisements
Track Severe Weather on mobile